^^
Meteo Knjazevac Station Historical Data
Daily Summary for February 27, 2021 Units:  English    Metric   Both
Daily Weekly Monthly Yearly Custom
  High: Low: Average:
Temperature: 40.1 °F 34.7 °F 36.7 °F
Dew Point: 33.8 °F 30.9 °F 32.3 °F
Humidity: 90% 78% 84%
Wind Speed: 6mph 0mph 1.9mph
Wind Gust: 8mph - -
Wind- - WNW
Pressure: 30.27 in 30.25 in -
Precipitation: 0.00 in    
Historical Graphs
 
 
Tabular Data for February 27, 2021
Time Temperature Dew Point Pressure Wind Wind Speed Wind Gust Humidity Rainfall Rate (Hourly) solar Conditions
00:00 40.1 °F 33.8 °F 30.27 in WNW 2 mph 5 mph 78% 0.00 in 0 W/m2
00:10 39.5 °F 33.2 °F 30.27 in West 3 mph 6 mph 78% 0.00 in 0 W/m2
00:20 39.4 °F 33.4 °F 30.27 in WNW 2 mph 6 mph 79% 0.00 in 0 W/m2
00:30 39.2 °F 33.2 °F 30.27 in West 1 mph 3 mph 79% 0.00 in 0 W/m2
00:40 38.3 °F 32.4 °F 30.27 in West 2 mph 3 mph 79% 0.00 in 0 W/m2
00:50 37.9 °F 32.3 °F 30.27 in Calm   5 mph 80% 0.00 in 0 W/m2
01:00 37.8 °F 32.5 °F 30.27 in WNW 1 mph 3 mph 81% 0.00 in 0 W/m2
01:10 37.4 °F 32.1 °F 30.27 in West 2 mph 4 mph 81% 0.00 in 0 W/m2
01:20 37.2 °F 32.5 °F 30.27 in West 2 mph 5 mph 83% 0.00 in 0 W/m2
01:30 37.2 °F 32.5 °F 30.27 in West 1 mph 4 mph 83% 0.00 in 0 W/m2
01:40 37.2 °F 32.5 °F 30.27 in West 2 mph 4 mph 83% 0.00 in 0 W/m2
01:50 37.4 °F 32.7 °F 30.26 in NW 1 mph 4 mph 83% 0.00 in 0 W/m2
02:00 37 °F 32.4 °F 30.26 in NW 1 mph 3 mph 83% 0.00 in 0 W/m2
02:10 36.9 °F 32.5 °F 30.26 in WNW 1 mph 3 mph 84% 0.00 in 0 W/m2
02:20 36.5 °F 32.1 °F 30.26 in WNW 1 mph 4 mph 84% 0.00 in 0 W/m2
02:30 36.3 °F 31.9 °F 30.26 in WNW 2 mph 4 mph 84% 0.00 in 0 W/m2
02:40 36.1 °F 32.1 °F 30.26 in WNW 1 mph 4 mph 85% 0.00 in 0 W/m2
02:50 36 °F 31.6 °F 30.26 in WNW 1 mph 3 mph 84% 0.00 in 0 W/m2
03:00 35.6 °F 31.5 °F 30.26 in WNW 2 mph 4 mph 85% 0.00 in 0 W/m2
03:10 35.3 °F 31.2 °F 30.26 in West 2 mph 5 mph 85% 0.00 in 0 W/m2
03:20 35.1 °F 31.3 °F 30.26 in WNW 2 mph 5 mph 86% 0.00 in 0 W/m2
03:40 34.7 °F 30.9 °F 30.26 in West 3 mph 6 mph 86% 0.00 in 0 W/m2
03:50 34.9 °F 31.7 °F 30.26 in West 3 mph 6 mph 88% 0.00 in 0 W/m2
04:00 35.2 °F 32.3 °F 30.25 in West 6 mph 8 mph 89% 0.00 in 0 W/m2
04:10 35.2 °F 32.3 °F 30.25 in West 1 mph 8 mph 89% 0.00 in 0 W/m2
04:20 35.1 °F 32.1 °F 30.25 in West 3 mph 5 mph 89% 0.00 in 0 W/m2
04:30 35.1 °F 32.1 °F 30.26 in West 2 mph 6 mph 89% 0.00 in 0 W/m2
04:40 34.9 °F 32 °F 30.26 in West 3 mph 6 mph 89% 0.00 in 0 W/m2
04:50 35.2 °F 32.6 °F 30.25 in West 3 mph 6 mph 90% 0.00 in 0 W/m2
Knjazevac, Serbia
Compliments of Weather Underground - 2 mb